sensor_id;sensor_type;location;lat;lon;timestamp;temperature;humidity
10175;DHT22;18221;38.704;0.152;2022-10-12T00:00:16;17.20;99.90
10175;DHT22;18221;38.704;0.152;2022-10-12T00:11:17;17.20;99.90
10175;DHT22;18221;38.704;0.152;2022-10-12T00:13:47;17.20;99.90
10175;DHT22;18221;38.704;0.152;2022-10-12T00:16:19;17.20;99.90
10175;DHT22;18221;38.704;0.152;2022-10-12T00:18:49;17.20;99.90
10175;DHT22;18221;38.704;0.152;2022-10-12T00:21:18;17.10;99.90
10175;DHT22;18221;38.704;0.152;2022-10-12T00:23:46;17.10;99.90
10175;DHT22;18221;38.704;0.152;2022-10-12T00:26:17;17.10;99.90
10175;DHT22;18221;38.704;0.152;2022-10-12T00:28:46;17.10;99.90
10175;DHT22;18221;38.704;0.152;2022-10-12T00:31:17;17.10;99.90
10175;DHT22;18221;38.704;0.152;2022-10-12T00:33:47;17.10;99.90
10175;DHT22;18221;38.704;0.152;2022-10-12T00:36:17;17.10;99.90
10175;DHT22;18221;38.704;0.152;2022-10-12T00:38:47;17.20;99.90
10175;DHT22;18221;38.704;0.152;2022-10-12T00:41:18;17.10;99.90
10175;DHT22;18221;38.704;0.152;2022-10-12T00:43:48;17.10;99.90
10175;DHT22;18221;38.704;0.152;2022-10-12T00:46:23;17.10;99.90
10175;DHT22;18221;38.704;0.152;2022-10-12T00:48:58;17.10;99.90
10175;DHT22;18221;38.704;0.152;2022-10-12T00:51:32;17.20;99.90
10175;DHT22;18221;38.704;0.152;2022-10-12T00:54:03;17.10;99.90
10175;DHT22;18221;38.704;0.152;2022-10-12T00:56:38;17.10;99.90
10175;DHT22;18221;38.704;0.152;2022-10-12T00:59:11;17.10;99.90
10175;DHT22;18221;38.704;0.152;2022-10-12T01:01:45;17.20;99.90
10175;DHT22;18221;38.704;0.152;2022-10-12T01:04:13;17.20;99.90
10175;DHT22;18221;38.704;0.152;2022-10-12T01:06:41;17.20;99.90
10175;DHT22;18221;38.704;0.152;2022-10-12T01:09:09;17.20;99.90
10175;DHT22;18221;38.704;0.152;2022-10-12T01:11:37;17.20;99.90
10175;DHT22;18221;38.704;0.152;2022-10-12T01:14:04;17.20;99.90
10175;DHT22;18221;38.704;0.152;2022-10-12T01:16:37;17.20;99.90
10175;DHT22;18221;38.704;0.152;2022-10-12T01:19:24;17.20;99.90
10175;DHT22;18221;38.704;0.152;2022-10-12T01:22:12;17.20;99.90
10175;DHT22;18221;38.704;0.152;2022-10-12T01:24:50;17.20;99.90
10175;DHT22;18221;38.704;0.152;2022-10-12T01:27:36;17.20;99.90
10175;DHT22;18221;38.704;0.152;2022-10-12T01:30:20;17.10;99.90
10175;DHT22;18221;38.704;0.152;2022-10-12T01:33:05;17.20;99.90
10175;DHT22;18221;38.704;0.152;2022-10-12T01:35:46;17.20;99.90
10175;DHT22;18221;38.704;0.152;2022-10-12T01:41:12;17.20;99.90
10175;DHT22;18221;38.704;0.152;2022-10-12T01:43:44;17.20;99.90
10175;DHT22;18221;38.704;0.152;2022-10-12T01:46:39;17.10;99.90
10175;DHT22;18221;38.704;0.152;2022-10-12T01:49:11;17.20;99.90
10175;DHT22;18221;38.704;0.152;2022-10-12T01:51:54;17.20;99.90
10175;DHT22;18221;38.704;0.152;2022-10-12T01:54:41;17.20;99.90
10175;DHT22;18221;38.704;0.152;2022-10-12T01:57:25;17.20;99.90
10175;DHT22;18221;38.704;0.152;2022-10-12T02:00:05;17.20;99.90
10175;DHT22;18221;38.704;0.152;2022-10-12T02:02:44;17.10;99.90
10175;DHT22;18221;38.704;0.152;2022-10-12T02:05:26;17.10;99.90
10175;DHT22;18221;38.704;0.152;2022-10-12T02:08:08;17.10;99.90
10175;DHT22;18221;38.704;0.152;2022-10-12T02:10:45;17.20;99.90
10175;DHT22;18221;38.704;0.152;2022-10-12T02:13:19;17.10;99.90
10175;DHT22;18221;38.704;0.152;2022-10-12T02:15:52;17.10;99.90
10175;DHT22;18221;38.704;0.152;2022-10-12T02:18:23;17.20;99.90
10175;DHT22;18221;38.704;0.152;2022-10-12T02:20:53;17.20;99.90
10175;DHT22;18221;38.704;0.152;2022-10-12T02:23:26;17.20;99.90
10175;DHT22;18221;38.704;0.152;2022-10-12T02:25:57;17.20;99.90
10175;DHT22;18221;38.704;0.152;2022-10-12T02:28:27;17.20;99.90
10175;DHT22;18221;38.704;0.152;2022-10-12T02:31:00;17.20;99.90
10175;DHT22;18221;38.704;0.152;2022-10-12T02:33:41;17.20;99.90
10175;DHT22;18221;38.704;0.152;2022-10-12T02:36:18;17.20;99.90
10175;DHT22;18221;38.704;0.152;2022-10-12T02:38:55;17.20;99.90
10175;DHT22;18221;38.704;0.152;2022-10-12T02:41:32;17.20;99.90
10175;DHT22;18221;38.704;0.152;2022-10-12T02:44:09;17.20;99.90
10175;DHT22;18221;38.704;0.152;2022-10-12T02:46:40;17.20;99.90
10175;DHT22;18221;38.704;0.152;2022-10-12T02:49:13;17.20;99.90
10175;DHT22;18221;38.704;0.152;2022-10-12T02:51:43;17.20;99.90
10175;DHT22;18221;38.704;0.152;2022-10-12T02:54:12;17.30;99.90
10175;DHT22;18221;38.704;0.152;2022-10-12T02:56:45;17.20;99.90
10175;DHT22;18221;38.704;0.152;2022-10-12T02:59:14;17.20;99.90
10175;DHT22;18221;38.704;0.152;2022-10-12T03:01:43;17.10;99.90
10175;DHT22;18221;38.704;0.152;2022-10-12T03:04:13;17.10;99.90
10175;DHT22;18221;38.704;0.152;2022-10-12T03:06:41;17.10;99.90
10175;DHT22;18221;38.704;0.152;2022-10-12T03:09:09;17.10;99.90
10175;DHT22;18221;38.704;0.152;2022-10-12T03:11:37;17.10;99.90
10175;DHT22;18221;38.704;0.152;2022-10-12T03:14:09;17.00;99.90
10175;DHT22;18221;38.704;0.152;2022-10-12T03:16:37;17.00;99.90
10175;DHT22;18221;38.704;0.152;2022-10-12T03:19:06;17.00;99.90
10175;DHT22;18221;38.704;0.152;2022-10-12T03:21:35;17.10;99.90
10175;DHT22;18221;38.704;0.152;2022-10-12T03:24:03;17.00;99.90
10175;DHT22;18221;38.704;0.152;2022-10-12T03:26:31;17.00;99.90
10175;DHT22;18221;38.704;0.152;2022-10-12T03:28:59;17.00;99.90
10175;DHT22;18221;38.704;0.152;2022-10-12T03:31:27;17.10;99.90
10175;DHT22;18221;38.704;0.152;2022-10-12T03:33:55;17.00;99.90
10175;DHT22;18221;38.704;0.152;2022-10-12T03:36:23;17.00;99.90
10175;DHT22;18221;38.704;0.152;2022-10-12T03:38:52;17.10;99.90
10175;DHT22;18221;38.704;0.152;2022-10-12T03:41:20;17.10;99.90
10175;DHT22;18221;38.704;0.152;2022-10-12T03:43:48;17.10;99.90
10175;DHT22;18221;38.704;0.152;2022-10-12T03:46:16;17.10;99.90
10175;DHT22;18221;38.704;0.152;2022-10-12T03:48:44;17.00;99.90
10175;DHT22;18221;38.704;0.152;2022-10-12T03:51:12;17.00;99.90
10175;DHT22;18221;38.704;0.152;2022-10-12T03:53:40;17.10;99.90
10175;DHT22;18221;38.704;0.152;2022-10-12T03:56:09;17.10;99.90
10175;DHT22;18221;38.704;0.152;2022-10-12T03:58:37;17.10;99.90
10175;DHT22;18221;38.704;0.152;2022-10-12T04:01:05;17.10;99.90
10175;DHT22;18221;38.704;0.152;2022-10-12T04:03:33;17.10;99.90
10175;DHT22;18221;38.704;0.152;2022-10-12T04:06:01;17.00;99.90
10175;DHT22;18221;38.704;0.152;2022-10-12T04:08:29;16.90;99.90
10175;DHT22;18221;38.704;0.152;2022-10-12T04:10:57;16.90;99.90
10175;DHT22;18221;38.704;0.152;2022-10-12T04:13:26;16.90;99.90
10175;DHT22;18221;38.704;0.152;2022-10-12T04:15:54;16.80;99.90
10175;DHT22;18221;38.704;0.152;2022-10-12T04:18:22;16.80;99.90
10175;DHT22;18221;38.704;0.152;2022-10-12T04:20:50;16.70;99.90
10175;DHT22;18221;38.704;0.152;2022-10-12T04:23:18;16.60;99.90
10175;DHT22;18221;38.704;0.152;2022-10-12T04:25:46;16.60;99.90
10175;DHT22;18221;38.704;0.152;2022-10-12T04:28:14;16.60;99.90
10175;DHT22;18221;38.704;0.152;2022-10-12T04:30:43;16.60;99.90
10175;DHT22;18221;38.704;0.152;2022-10-12T04:33:11;16.50;99.90
10175;DHT22;18221;38.704;0.152;2022-10-12T04:35:39;16.50;99.90
10175;DHT22;18221;38.704;0.152;2022-10-12T04:38:07;16.50;99.90
10175;DHT22;18221;38.704;0.152;2022-10-12T04:40:35;16.50;99.90
10175;DHT22;18221;38.704;0.152;2022-10-12T04:43:03;16.60;99.90
10175;DHT22;18221;38.704;0.152;2022-10-12T04:45:31;16.50;99.90
10175;DHT22;18221;38.704;0.152;2022-10-12T04:48:00;16.50;99.90
10175;DHT22;18221;38.704;0.152;2022-10-12T04:50:28;16.40;99.90
10175;DHT22;18221;38.704;0.152;2022-10-12T04:52:56;16.40;99.90
10175;DHT22;18221;38.704;0.152;2022-10-12T04:55:24;16.40;99.90
10175;DHT22;18221;38.704;0.152;2022-10-12T04:57:52;16.40;99.90
10175;DHT22;18221;38.704;0.152;2022-10-12T05:00:20;16.30;99.90
10175;DHT22;18221;38.704;0.152;2022-10-12T05:02:48;16.30;99.90
10175;DHT22;18221;38.704;0.152;2022-10-12T05:05:17;16.30;99.90
10175;DHT22;18221;38.704;0.152;2022-10-12T05:07:45;16.30;99.90
10175;DHT22;18221;38.704;0.152;2022-10-12T05:10:13;16.30;99.90
10175;DHT22;18221;38.704;0.152;2022-10-12T05:12:41;16.30;99.90
10175;DHT22;18221;38.704;0.152;2022-10-12T05:15:09;16.30;99.90
10175;DHT22;18221;38.704;0.152;2022-10-12T05:17:37;16.30;99.90
10175;DHT22;18221;38.704;0.152;2022-10-12T05:20:06;16.30;99.90
10175;DHT22;18221;38.704;0.152;2022-10-12T05:22:37;16.20;99.90
10175;DHT22;18221;38.704;0.152;2022-10-12T05:25:06;16.20;99.90
10175;DHT22;18221;38.704;0.152;2022-10-12T05:27:36;16.30;99.90
10175;DHT22;18221;38.704;0.152;2022-10-12T05:30:05;16.30;99.90
10175;DHT22;18221;38.704;0.152;2022-10-12T05:32:34;16.20;99.90
10175;DHT22;18221;38.704;0.152;2022-10-12T05:35:02;16.30;99.90
10175;DHT22;18221;38.704;0.152;2022-10-12T05:37:32;16.30;99.90
10175;DHT22;18221;38.704;0.152;2022-10-12T05:40:02;16.20;99.90
10175;DHT22;18221;38.704;0.152;2022-10-12T05:42:30;16.20;99.90
10175;DHT22;18221;38.704;0.152;2022-10-12T05:44:59;16.20;99.90
10175;DHT22;18221;38.704;0.152;2022-10-12T05:47:27;16.20;99.90
10175;DHT22;18221;38.704;0.152;2022-10-12T05:49:55;16.20;99.90
10175;DHT22;18221;38.704;0.152;2022-10-12T05:52:23;16.20;99.90
10175;DHT22;18221;38.704;0.152;2022-10-12T05:54:51;16.30;99.90
10175;DHT22;18221;38.704;0.152;2022-10-12T05:57:20;16.20;99.90
10175;DHT22;18221;38.704;0.152;2022-10-12T05:59:48;16.30;99.90
10175;DHT22;18221;38.704;0.152;2022-10-12T06:02:17;16.30;99.90
10175;DHT22;18221;38.704;0.152;2022-10-12T06:04:45;16.30;99.90
10175;DHT22;18221;38.704;0.152;2022-10-12T06:07:13;16.30;99.90
10175;DHT22;18221;38.704;0.152;2022-10-12T06:09:41;16.30;99.90
10175;DHT22;18221;38.704;0.152;2022-10-12T06:12:09;16.40;99.90
10175;DHT22;18221;38.704;0.152;2022-10-12T06:14:39;16.40;99.90
10175;DHT22;18221;38.704;0.152;2022-10-12T06:17:06;16.40;99.90
10175;DHT22;18221;38.704;0.152;2022-10-12T06:19:35;16.50;99.90
10175;DHT22;18221;38.704;0.152;2022-10-12T06:22:03;16.50;99.90
10175;DHT22;18221;38.704;0.152;2022-10-12T06:24:30;16.50;99.90
10175;DHT22;18221;38.704;0.152;2022-10-12T06:26:58;16.50;99.90
10175;DHT22;18221;38.704;0.152;2022-10-12T06:29:26;16.50;99.90
10175;DHT22;18221;38.704;0.152;2022-10-12T06:31:55;16.60;99.90
10175;DHT22;18221;38.704;0.152;2022-10-12T06:34:23;16.60;99.90
10175;DHT22;18221;38.704;0.152;2022-10-12T06:36:51;16.60;99.90
10175;DHT22;18221;38.704;0.152;2022-10-12T06:39:19;16.60;99.90
10175;DHT22;18221;38.704;0.152;2022-10-12T06:41:50;16.70;99.90
10175;DHT22;18221;38.704;0.152;2022-10-12T06:44:19;16.70;99.90
10175;DHT22;18221;38.704;0.152;2022-10-12T06:46:47;16.70;99.90
10175;DHT22;18221;38.704;0.152;2022-10-12T06:49:17;16.70;99.90
10175;DHT22;18221;38.704;0.152;2022-10-12T06:51:45;16.70;99.90
10175;DHT22;18221;38.704;0.152;2022-10-12T06:54:13;16.80;99.90
10175;DHT22;18221;38.704;0.152;2022-10-12T06:56:40;16.90;99.90
10175;DHT22;18221;38.704;0.152;2022-10-12T06:59:10;16.80;99.90
10175;DHT22;18221;38.704;0.152;2022-10-12T07:01:39;16.90;99.90
10175;DHT22;18221;38.704;0.152;2022-10-12T07:04:09;16.90;99.90
10175;DHT22;18221;38.704;0.152;2022-10-12T07:06:39;16.90;99.90
10175;DHT22;18221;38.704;0.152;2022-10-12T07:09:06;17.10;99.90
10175;DHT22;18221;38.704;0.152;2022-10-12T07:11:34;17.10;99.90
10175;DHT22;18221;38.704;0.152;2022-10-12T07:14:02;17.10;99.90
10175;DHT22;18221;38.704;0.152;2022-10-12T07:16:30;17.20;99.90
10175;DHT22;18221;38.704;0.152;2022-10-12T07:18:59;17.10;99.90
10175;DHT22;18221;38.704;0.152;2022-10-12T07:21:27;17.20;99.90
10175;DHT22;18221;38.704;0.152;2022-10-12T07:23:57;17.20;99.90
10175;DHT22;18221;38.704;0.152;2022-10-12T07:26:24;17.20;99.90
10175;DHT22;18221;38.704;0.152;2022-10-12T07:28:52;17.20;99.90
10175;DHT22;18221;38.704;0.152;2022-10-12T07:31:20;17.20;99.90
10175;DHT22;18221;38.704;0.152;2022-10-12T07:33:48;17.20;99.90
10175;DHT22;18221;38.704;0.152;2022-10-12T07:36:16;17.20;99.90
10175;DHT22;18221;38.704;0.152;2022-10-12T07:38:44;17.20;99.90
10175;DHT22;18221;38.704;0.152;2022-10-12T07:41:15;17.30;99.90
10175;DHT22;18221;38.704;0.152;2022-10-12T07:43:43;17.40;99.90
10175;DHT22;18221;38.704;0.152;2022-10-12T07:46:11;17.50;99.90
10175;DHT22;18221;38.704;0.152;2022-10-12T07:48:39;17.50;99.90
10175;DHT22;18221;38.704;0.152;2022-10-12T07:51:08;17.50;99.90
10175;DHT22;18221;38.704;0.152;2022-10-12T07:53:37;17.50;99.90
10175;DHT22;18221;38.704;0.152;2022-10-12T07:56:07;17.50;99.90
10175;DHT22;18221;38.704;0.152;2022-10-12T07:58:41;17.60;99.90
10175;DHT22;18221;38.704;0.152;2022-10-12T08:01:09;17.70;99.90
10175;DHT22;18221;38.704;0.152;2022-10-12T08:03:37;17.50;99.90
10175;DHT22;18221;38.704;0.152;2022-10-12T08:06:09;17.40;99.90
10175;DHT22;18221;38.704;0.152;2022-10-12T08:08:38;17.40;99.90
10175;DHT22;18221;38.704;0.152;2022-10-12T08:11:07;17.30;99.90
10175;DHT22;18221;38.704;0.152;2022-10-12T08:13:36;17.20;99.90
10175;DHT22;18221;38.704;0.152;2022-10-12T08:16:08;17.00;99.90
10175;DHT22;18221;38.704;0.152;2022-10-12T08:18:38;16.90;99.90
10175;DHT22;18221;38.704;0.152;2022-10-12T08:21:07;16.80;99.90
10175;DHT22;18221;38.704;0.152;2022-10-12T08:23:36;16.80;99.90
10175;DHT22;18221;38.704;0.152;2022-10-12T08:26:05;16.70;99.90
10175;DHT22;18221;38.704;0.152;2022-10-12T08:28:34;16.60;99.90
10175;DHT22;18221;38.704;0.152;2022-10-12T08:31:07;16.60;99.90
10175;DHT22;18221;38.704;0.152;2022-10-12T08:33:36;16.60;99.90
10175;DHT22;18221;38.704;0.152;2022-10-12T08:36:05;16.50;99.90
10175;DHT22;18221;38.704;0.152;2022-10-12T08:38:34;16.60;99.90
10175;DHT22;18221;38.704;0.152;2022-10-12T08:41:13;16.60;99.90
10175;DHT22;18221;38.704;0.152;2022-10-12T08:44:07;16.60;99.90
10175;DHT22;18221;38.704;0.152;2022-10-12T08:46:50;16.60;99.90
10175;DHT22;18221;38.704;0.152;2022-10-12T08:49:25;16.70;99.90
10175;DHT22;18221;38.704;0.152;2022-10-12T08:51:59;16.80;99.90
10175;DHT22;18221;38.704;0.152;2022-10-12T08:54:36;16.80;99.90
10175;DHT22;18221;38.704;0.152;2022-10-12T08:57:09;16.80;99.90
10175;DHT22;18221;38.704;0.152;2022-10-12T08:59:43;16.90;99.90
10175;DHT22;18221;38.704;0.152;2022-10-12T09:02:36;16.90;99.90
10175;DHT22;18221;38.704;0.152;2022-10-12T09:05:18;16.90;99.90
10175;DHT22;18221;38.704;0.152;2022-10-12T09:07:55;16.90;99.90
10175;DHT22;18221;38.704;0.152;2022-10-12T09:10:42;17.00;99.90
10175;DHT22;18221;38.704;0.152;2022-10-12T09:13:27;17.00;99.90
10175;DHT22;18221;38.704;0.152;2022-10-12T09:16:05;17.10;99.90
10175;DHT22;18221;38.704;0.152;2022-10-12T09:18:45;17.10;99.90
10175;DHT22;18221;38.704;0.152;2022-10-12T09:21:19;17.10;99.90
10175;DHT22;18221;38.704;0.152;2022-10-12T09:23:50;17.00;99.90
10175;DHT22;18221;38.704;0.152;2022-10-12T09:26:32;17.10;99.90
10175;DHT22;18221;38.704;0.152;2022-10-12T09:29:02;17.10;99.90
10175;DHT22;18221;38.704;0.152;2022-10-12T09:32:01;17.10;99.90
10175;DHT22;18221;38.704;0.152;2022-10-12T09:34:41;17.10;99.90
10175;DHT22;18221;38.704;0.152;2022-10-12T09:37:13;17.10;99.90
10175;DHT22;18221;38.704;0.152;2022-10-12T09:40:05;17.10;99.90
10175;DHT22;18221;38.704;0.152;2022-10-12T09:42:41;17.10;99.90
10175;DHT22;18221;38.704;0.152;2022-10-12T09:45:19;17.20;99.90
10175;DHT22;18221;38.704;0.152;2022-10-12T09:48:13;17.20;99.90
10175;DHT22;18221;38.704;0.152;2022-10-12T09:50:48;17.30;99.90
10175;DHT22;18221;38.704;0.152;2022-10-12T09:53:25;17.30;99.90
10175;DHT22;18221;38.704;0.152;2022-10-12T09:56:03;17.30;99.90
10175;DHT22;18221;38.704;0.152;2022-10-12T09:58:40;17.30;99.90
10175;DHT22;18221;38.704;0.152;2022-10-12T10:01:21;17.40;99.90
10175;DHT22;18221;38.704;0.152;2022-10-12T10:04:07;17.40;99.90
10175;DHT22;18221;38.704;0.152;2022-10-12T10:06:40;17.30;99.90
10175;DHT22;18221;38.704;0.152;2022-10-12T10:09:30;17.30;99.90
10175;DHT22;18221;38.704;0.152;2022-10-12T10:12:37;17.30;99.90
10175;DHT22;18221;38.704;0.152;2022-10-12T10:16:00;17.10;99.90
10175;DHT22;18221;38.704;0.152;2022-10-12T10:22:14;17.30;99.90
10175;DHT22;18221;38.704;0.152;2022-10-12T10:24:42;17.20;99.90
10175;DHT22;18221;38.704;0.152;2022-10-12T10:27:29;17.40;99.90
10175;DHT22;18221;38.704;0.152;2022-10-12T10:30:13;17.30;99.90
10175;DHT22;18221;38.704;0.152;2022-10-12T10:32:47;17.40;99.90
10175;DHT22;18221;38.704;0.152;2022-10-12T10:35:19;17.40;99.90
10175;DHT22;18221;38.704;0.152;2022-10-12T10:37:51;17.50;99.90
10175;DHT22;18221;38.704;0.152;2022-10-12T10:40:24;17.50;99.90
10175;DHT22;18221;38.704;0.152;2022-10-12T10:42:55;17.50;99.90
10175;DHT22;18221;38.704;0.152;2022-10-12T10:45:27;17.60;99.90
10175;DHT22;18221;38.704;0.152;2022-10-12T10:47:58;17.50;99.90
10175;DHT22;18221;38.704;0.152;2022-10-12T10:50:37;17.50;99.90
10175;DHT22;18221;38.704;0.152;2022-10-12T10:53:16;17.50;99.90
10175;DHT22;18221;38.704;0.152;2022-10-12T10:55:49;17.60;99.90
10175;DHT22;18221;38.704;0.152;2022-10-12T10:58:26;17.60;99.90
10175;DHT22;18221;38.704;0.152;2022-10-12T11:01:03;17.70;99.90
10175;DHT22;18221;38.704;0.152;2022-10-12T11:03:45;17.70;99.90
10175;DHT22;18221;38.704;0.152;2022-10-12T11:06:28;17.70;99.90
10175;DHT22;18221;38.704;0.152;2022-10-12T11:09:10;17.70;99.90
10175;DHT22;18221;38.704;0.152;2022-10-12T11:11:42;17.80;99.90
10175;DHT22;18221;38.704;0.152;2022-10-12T11:14:15;17.80;99.90
10175;DHT22;18221;38.704;0.152;2022-10-12T11:16:50;17.80;99.90
10175;DHT22;18221;38.704;0.152;2022-10-12T11:19:26;17.80;99.90
10175;DHT22;18221;38.704;0.152;2022-10-12T11:22:03;17.90;99.90
10175;DHT22;18221;38.704;0.152;2022-10-12T11:24:42;17.90;99.90
10175;DHT22;18221;38.704;0.152;2022-10-12T11:27:19;17.90;99.90
10175;DHT22;18221;38.704;0.152;2022-10-12T11:29:58;17.90;99.90
10175;DHT22;18221;38.704;0.152;2022-10-12T11:32:30;17.90;99.90
10175;DHT22;18221;38.704;0.152;2022-10-12T11:35:04;18.00;99.90
10175;DHT22;18221;38.704;0.152;2022-10-12T11:37:44;18.10;99.90
10175;DHT22;18221;38.704;0.152;2022-10-12T11:40:22;18.10;99.90
10175;DHT22;18221;38.704;0.152;2022-10-12T11:42:55;18.10;99.90
10175;DHT22;18221;38.704;0.152;2022-10-12T11:45:29;18.10;99.90
10175;DHT22;18221;38.704;0.152;2022-10-12T11:48:06;18.10;99.90
10175;DHT22;18221;38.704;0.152;2022-10-12T11:50:41;18.20;99.90
10175;DHT22;18221;38.704;0.152;2022-10-12T11:53:20;18.20;99.90
10175;DHT22;18221;38.704;0.152;2022-10-12T11:56:04;18.30;99.90
10175;DHT22;18221;38.704;0.152;2022-10-12T11:58:40;18.30;99.90
10175;DHT22;18221;38.704;0.152;2022-10-12T12:01:36;18.30;99.90
10175;DHT22;18221;38.704;0.152;2022-10-12T12:04:25;18.30;99.90
10175;DHT22;18221;38.704;0.152;2022-10-12T12:06:58;18.30;99.90
10175;DHT22;18221;38.704;0.152;2022-10-12T12:09:45;18.30;99.90
10175;DHT22;18221;38.704;0.152;2022-10-12T12:12:25;18.20;99.90
10175;DHT22;18221;38.704;0.152;2022-10-12T12:15:06;18.30;99.90
10175;DHT22;18221;38.704;0.152;2022-10-12T12:18:12;18.20;99.90
10175;DHT22;18221;38.704;0.152;2022-10-12T12:21:03;18.20;99.90
10175;DHT22;18221;38.704;0.152;2022-10-12T12:23:37;18.20;99.90
10175;DHT22;18221;38.704;0.152;2022-10-12T12:26:16;18.20;99.90
10175;DHT22;18221;38.704;0.152;2022-10-12T12:28:48;18.10;99.90
10175;DHT22;18221;38.704;0.152;2022-10-12T12:31:26;18.20;99.90
10175;DHT22;18221;38.704;0.152;2022-10-12T12:34:02;18.20;99.90
10175;DHT22;18221;38.704;0.152;2022-10-12T12:36:33;18.20;99.90
10175;DHT22;18221;38.704;0.152;2022-10-12T12:39:04;18.20;99.90
10175;DHT22;18221;38.704;0.152;2022-10-12T12:41:47;18.20;99.90
10175;DHT22;18221;38.704;0.152;2022-10-12T12:44:37;18.20;99.90
10175;DHT22;18221;38.704;0.152;2022-10-12T12:47:35;18.20;99.90
10175;DHT22;18221;38.704;0.152;2022-10-12T12:50:25;18.20;99.90
10175;DHT22;18221;38.704;0.152;2022-10-12T12:53:03;18.20;99.90
10175;DHT22;18221;38.704;0.152;2022-10-12T12:55:57;18.20;99.90
10175;DHT22;18221;38.704;0.152;2022-10-12T12:58:50;18.20;99.90
10175;DHT22;18221;38.704;0.152;2022-10-12T13:01:47;18.20;99.90
10175;DHT22;18221;38.704;0.152;2022-10-12T13:05:01;18.20;99.90
10175;DHT22;18221;38.704;0.152;2022-10-12T13:08:08;18.20;99.90
10175;DHT22;18221;38.704;0.152;2022-10-12T13:11:02;18.20;99.90
10175;DHT22;18221;38.704;0.152;2022-10-12T13:13:57;18.30;99.90
10175;DHT22;18221;38.704;0.152;2022-10-12T13:16:57;18.20;99.90
10175;DHT22;18221;38.704;0.152;2022-10-12T13:19:37;18.20;99.90
10175;DHT22;18221;38.704;0.152;2022-10-12T13:22:12;18.20;99.90
10175;DHT22;18221;38.704;0.152;2022-10-12T13:24:49;18.20;99.90
10175;DHT22;18221;38.704;0.152;2022-10-12T13:27:23;18.40;99.90
10175;DHT22;18221;38.704;0.152;2022-10-12T13:30:03;18.50;99.90
10175;DHT22;18221;38.704;0.152;2022-10-12T13:32:44;18.50;99.90
10175;DHT22;18221;38.704;0.152;2022-10-12T13:35:28;18.60;99.90
10175;DHT22;18221;38.704;0.152;2022-10-12T13:38:01;18.60;99.90
10175;DHT22;18221;38.704;0.152;2022-10-12T13:40:35;18.60;99.90
10175;DHT22;18221;38.704;0.152;2022-10-12T13:46:04;18.60;99.90
10175;DHT22;18221;38.704;0.152;2022-10-12T13:48:34;18.70;99.90
10175;DHT22;18221;38.704;0.152;2022-10-12T13:51:03;18.70;99.90
10175;DHT22;18221;38.704;0.152;2022-10-12T13:53:44;18.70;99.90
10175;DHT22;18221;38.704;0.152;2022-10-12T13:56:15;18.80;99.90
10175;DHT22;18221;38.704;0.152;2022-10-12T13:58:46;18.90;99.90
10175;DHT22;18221;38.704;0.152;2022-10-12T14:01:14;18.90;99.90
10175;DHT22;18221;38.704;0.152;2022-10-12T14:03:44;18.90;99.90
10175;DHT22;18221;38.704;0.152;2022-10-12T14:06:26;19.00;99.90
10175;DHT22;18221;38.704;0.152;2022-10-12T14:08:57;19.00;99.90
10175;DHT22;18221;38.704;0.152;2022-10-12T14:11:31;18.90;99.90
10175;DHT22;18221;38.704;0.152;2022-10-12T14:14:01;18.80;99.90
10175;DHT22;18221;38.704;0.152;2022-10-12T14:16:30;18.80;99.90
10175;DHT22;18221;38.704;0.152;2022-10-12T14:19:17;18.90;99.90
10175;DHT22;18221;38.704;0.152;2022-10-12T14:21:47;18.90;99.90
10175;DHT22;18221;38.704;0.152;2022-10-12T14:24:17;19.00;99.90
10175;DHT22;18221;38.704;0.152;2022-10-12T14:26:52;19.00;99.90
10175;DHT22;18221;38.704;0.152;2022-10-12T14:29:35;19.10;99.90
10175;DHT22;18221;38.704;0.152;2022-10-12T14:32:36;19.10;99.90
10175;DHT22;18221;38.704;0.152;2022-10-12T14:35:28;19.30;99.90
10175;DHT22;18221;38.704;0.152;2022-10-12T14:37:56;19.40;99.90
10175;DHT22;18221;38.704;0.152;2022-10-12T14:40:34;19.40;99.90
10175;DHT22;18221;38.704;0.152;2022-10-12T14:43:06;19.50;99.90
10175;DHT22;18221;38.704;0.152;2022-10-12T14:45:49;19.40;99.90
10175;DHT22;18221;38.704;0.152;2022-10-12T14:48:19;19.50;99.90
10175;DHT22;18221;38.704;0.152;2022-10-12T14:50:51;19.40;99.90
10175;DHT22;18221;38.704;0.152;2022-10-12T14:53:19;19.40;99.90
10175;DHT22;18221;38.704;0.152;2022-10-12T14:55:47;19.50;99.90
10175;DHT22;18221;38.704;0.152;2022-10-12T14:58:15;19.60;99.90
10175;DHT22;18221;38.704;0.152;2022-10-12T15:00:44;19.70;99.90
10175;DHT22;18221;38.704;0.152;2022-10-12T15:03:12;19.80;99.90
10175;DHT22;18221;38.704;0.152;2022-10-12T15:05:42;20.00;99.90
10175;DHT22;18221;38.704;0.152;2022-10-12T15:08:12;20.30;99.90
10175;DHT22;18221;38.704;0.152;2022-10-12T15:10:39;20.30;99.90
10175;DHT22;18221;38.704;0.152;2022-10-12T15:13:12;20.30;99.90
10175;DHT22;18221;38.704;0.152;2022-10-12T15:15:42;20.30;99.90
10175;DHT22;18221;38.704;0.152;2022-10-12T15:18:12;20.20;99.90
10175;DHT22;18221;38.704;0.152;2022-10-12T15:20:40;20.30;99.90
10175;DHT22;18221;38.704;0.152;2022-10-12T15:23:09;20.30;99.90
10175;DHT22;18221;38.704;0.152;2022-10-12T15:25:43;20.30;99.90
10175;DHT22;18221;38.704;0.152;2022-10-12T15:28:15;20.30;99.90
10175;DHT22;18221;38.704;0.152;2022-10-12T15:30:43;20.20;99.90
10175;DHT22;18221;38.704;0.152;2022-10-12T15:33:11;20.10;99.90
10175;DHT22;18221;38.704;0.152;2022-10-12T15:35:39;20.10;99.90
10175;DHT22;18221;38.704;0.152;2022-10-12T15:38:07;20.10;99.90
10175;DHT22;18221;38.704;0.152;2022-10-12T15:40:37;20.20;99.90
10175;DHT22;18221;38.704;0.152;2022-10-12T15:43:06;20.20;99.90
10175;DHT22;18221;38.704;0.152;2022-10-12T15:45:35;20.20;99.90
10175;DHT22;18221;38.704;0.152;2022-10-12T15:48:05;20.10;99.90
10175;DHT22;18221;38.704;0.152;2022-10-12T15:50:35;20.00;99.90
10175;DHT22;18221;38.704;0.152;2022-10-12T15:53:05;20.00;99.90
10175;DHT22;18221;38.704;0.152;2022-10-12T15:55:36;20.10;99.90
10175;DHT22;18221;38.704;0.152;2022-10-12T15:58:04;20.20;99.90
10175;DHT22;18221;38.704;0.152;2022-10-12T16:00:32;20.20;99.90
10175;DHT22;18221;38.704;0.152;2022-10-12T16:03:00;20.10;99.90
10175;DHT22;18221;38.704;0.152;2022-10-12T16:05:30;20.10;99.90
10175;DHT22;18221;38.704;0.152;2022-10-12T16:08:00;20.10;99.90
10175;DHT22;18221;38.704;0.152;2022-10-12T16:10:31;19.90;99.90
10175;DHT22;18221;38.704;0.152;2022-10-12T16:13:04;19.90;99.90
10175;DHT22;18221;38.704;0.152;2022-10-12T16:15:33;19.80;99.90
10175;DHT22;18221;38.704;0.152;2022-10-12T16:18:03;19.70;99.90
10175;DHT22;18221;38.704;0.152;2022-10-12T16:20:33;19.70;99.90
10175;DHT22;18221;38.704;0.152;2022-10-12T16:23:03;19.70;99.90
10175;DHT22;18221;38.704;0.152;2022-10-12T16:25:34;19.70;99.90
10175;DHT22;18221;38.704;0.152;2022-10-12T16:28:03;19.70;99.90